createdAt,value
2023-04-11T00:00:00.522Z,70.67
2023-04-11T00:01:57.671Z,70.79
2023-04-11T00:05:11.757Z,70.76
2023-04-11T00:06:53.213Z,71.05
2023-04-11T00:08:32.378Z,71.07
2023-04-11T00:10:15.877Z,71.29
2023-04-11T00:11:48.154Z,71.38
2023-04-11T00:13:31.803Z,71.51
2023-04-11T00:15:04.317Z,71.49
2023-04-11T00:16:58.202Z,71.51
2023-04-11T00:18:42.230Z,71.68
2023-04-11T00:20:25.746Z,71.82
2023-04-11T00:22:18.198Z,71.84
2023-04-11T00:23:52.526Z,71.97
2023-04-11T00:25:34.966Z,72.11
2023-04-11T00:27:08.850Z,72.16
2023-04-11T00:28:38.691Z,72.50
2023-04-11T00:30:21.825Z,72.58
2023-04-11T00:31:56.345Z,72.70
2023-04-11T00:33:18.576Z,72.72
2023-04-11T00:34:50.910Z,73.07
2023-04-11T00:36:11.112Z,72.93
2023-04-11T00:37:55.365Z,72.86
2023-04-11T00:39:35.235Z,72.97
2023-04-11T00:41:09.415Z,73.16
2023-04-11T00:42:41.661Z,72.99
2023-04-11T00:44:08.733Z,72.95
2023-04-11T00:45:41.232Z,73.19
2023-04-11T00:47:24.895Z,72.96
2023-04-11T00:48:48.232Z,72.97
2023-04-11T00:50:16.359Z,72.97
2023-04-11T00:51:48.811Z,72.93
2023-04-11T00:53:32.334Z,72.93
2023-04-11T00:55:15.950Z,73.04
2023-04-11T00:57:02.337Z,73.15
2023-04-11T00:58:42.012Z,73.20
2023-04-11T01:00:14.952Z,73.24
2023-04-11T01:02:00.964Z,73.30
2023-04-11T01:03:31.069Z,73.04
2023-04-11T01:05:02.983Z,73.03
2023-04-11T01:06:50.152Z,73.16
2023-04-11T01:08:33.645Z,73.30
2023-04-11T01:10:08.196Z,73.27
2023-04-11T01:11:43.350Z,73.26
2023-04-11T01:13:05.937Z,73.33
2023-04-11T01:14:40.724Z,73.38
2023-04-11T01:16:15.731Z,73.47
2023-04-11T01:17:48.257Z,73.51
2023-04-11T01:19:20.925Z,73.64
2023-04-11T01:21:00.645Z,73.34
2023-04-11T01:22:40.786Z,73.47
2023-04-11T01:24:12.326Z,73.74
2023-04-11T01:25:43.489Z,73.81
2023-04-11T01:27:04.682Z,73.94
2023-04-11T01:28:27.675Z,74.03
2023-04-11T01:29:55.738Z,74.07
2023-04-11T01:31:37.483Z,74.25
2023-04-11T01:33:11.403Z,74.18
2023-04-11T01:34:43.863Z,74.28
2023-04-11T01:36:35.897Z,73.96
2023-04-11T01:38:16.335Z,74.13
2023-04-11T01:40:04.199Z,74.16
2023-04-11T01:41:36.884Z,74.11
2023-04-11T01:43:18.218Z,73.87
2023-04-11T01:44:50.625Z,73.63
2023-04-11T01:46:19.796Z,73.69
2023-04-11T01:47:59.296Z,73.68
2023-04-11T01:49:43.306Z,73.58
2023-04-11T01:51:22.234Z,73.54
2023-04-11T01:53:01.308Z,73.62
2023-04-11T01:54:29.558Z,73.68
2023-04-11T01:56:12.667Z,73.54
2023-04-11T01:57:47.278Z,73.76
2023-04-11T01:59:27.910Z,73.71
2023-04-11T02:00:48.416Z,73.49
2023-04-11T02:02:31.812Z,73.70
2023-04-11T02:04:15.671Z,73.60
2023-04-11T02:06:03.052Z,73.59
2023-04-11T02:07:55.084Z,73.68
2023-04-11T02:09:29.140Z,73.78
2023-04-11T02:10:49.926Z,73.88
2023-04-11T02:12:21.588Z,73.94
2023-04-11T02:14:04.989Z,74.24
2023-04-11T02:15:39.674Z,74.28
2023-04-11T02:17:15.887Z,74.27
2023-04-11T02:18:48.184Z,74.30
2023-04-11T02:20:11.021Z,74.14
2023-04-11T02:21:45.744Z,73.83
2023-04-11T02:23:18.322Z,74.00
2023-04-11T02:25:01.140Z,73.92
2023-04-11T02:26:37.700Z,74.12
2023-04-11T02:28:22.487Z,73.95
2023-04-11T02:30:06.045Z,73.86
2023-04-11T02:31:38.738Z,73.97
2023-04-11T02:33:18.017Z,73.88
2023-04-11T02:35:07.320Z,74.26
2023-04-11T02:36:41.643Z,74.43
2023-04-11T02:38:13.294Z,74.64
2023-04-11T02:39:43.219Z,74.83
2023-04-11T02:41:17.455Z,74.64
2023-04-11T02:43:09.790Z,74.96
2023-04-11T02:44:55.220Z,74.98
2023-04-11T02:46:34.963Z,75.30
2023-04-11T02:48:08.019Z,75.10
2023-04-11T02:49:43.207Z,75.31
2023-04-11T02:51:28.039Z,75.21
2023-04-11T02:53:11.786Z,75.18
2023-04-11T02:54:44.356Z,75.37
2023-04-11T02:56:29.849Z,75.82
2023-04-11T02:57:57.841Z,75.97
2023-04-11T02:59:22.626Z,75.67
2023-04-11T03:00:54.439Z,75.85
2023-04-11T03:02:28.863Z,75.64
2023-04-11T03:04:17.338Z,75.48
2023-04-11T03:06:04.440Z,75.93
2023-04-11T03:07:50.663Z,75.74
2023-04-11T03:09:11.126Z,75.62
2023-04-11T03:10:55.060Z,75.63
2023-04-11T03:12:27.948Z,75.73
2023-04-11T03:14:04.692Z,75.62
2023-04-11T03:15:37.217Z,75.60
2023-04-11T03:17:23.149Z,75.65
2023-04-11T03:19:08.743Z,75.61
2023-04-11T03:20:40.656Z,75.51
2023-04-11T03:22:23.850Z,75.67
2023-04-11T03:24:15.766Z,75.66
2023-04-11T03:25:42.058Z,75.25
2023-04-11T03:27:13.546Z,75.48
2023-04-11T03:28:58.994Z,75.68
2023-04-11T03:30:39.864Z,75.62
2023-04-11T03:32:23.270Z,75.78
2023-04-11T03:34:11.202Z,75.84
2023-04-11T03:35:54.936Z,76.19
2023-04-11T03:37:26.822Z,76.17
2023-04-11T03:39:06.576Z,76.37
2023-04-11T03:40:41.068Z,76.26
2023-04-11T03:42:40.057Z,76.58
2023-04-11T03:44:13.262Z,76.32
2023-04-11T03:45:45.345Z,76.44
2023-04-11T03:47:22.020Z,76.50
2023-04-11T03:49:11.279Z,76.40
2023-04-11T03:50:45.837Z,76.44
2023-04-11T03:52:22.096Z,76.24
2023-04-11T03:54:06.579Z,76.00
2023-04-11T03:55:53.798Z,76.03
2023-04-11T03:57:18.038Z,76.01
2023-04-11T03:59:01.752Z,75.89
2023-04-11T04:00:40.679Z,75.99
2023-04-11T04:02:15.653Z,75.92
2023-04-11T04:04:03.628Z,76.01
2023-04-11T04:05:56.463Z,76.27
2023-04-11T04:07:40.238Z,76.40
2023-04-11T04:09:28.185Z,76.46
2023-04-11T04:11:11.999Z,76.59
2023-04-11T04:12:46.637Z,76.74
2023-04-11T04:14:15.844Z,76.93
2023-04-11T04:16:06.804Z,76.88
2023-04-11T04:17:39.406Z,77.37
2023-04-11T04:19:31.942Z,77.46
2023-04-11T04:21:15.539Z,77.51
2023-04-11T04:23:00.619Z,77.62
2023-04-11T04:25:31.831Z,77.44
2023-04-11T04:27:04.736Z,77.50
2023-04-11T04:28:55.847Z,77.53
2023-04-11T04:30:40.074Z,77.68
2023-04-11T04:32:16.209Z,77.47
2023-04-11T04:33:53.209Z,77.47
2023-04-11T04:35:40.352Z,77.61
2023-04-11T04:37:21.255Z,77.63
2023-04-11T04:38:55.743Z,77.74
2023-04-11T04:40:42.731Z,77.54
2023-04-11T04:42:35.100Z,77.74
2023-04-11T04:44:20.671Z,77.50
2023-04-11T04:45:53.862Z,77.70
2023-04-11T04:47:41.643Z,77.61
2023-04-11T04:49:13.243Z,77.83
2023-04-11T04:50:45.343Z,77.49
2023-04-11T04:52:28.900Z,77.48
2023-04-11T04:53:57.082Z,77.50
2023-04-11T04:55:32.215Z,77.33
2023-04-11T04:57:09.950Z,77.18
2023-04-11T04:58:49.952Z,77.01
2023-04-11T05:00:23.173Z,77.14
2023-04-11T05:02:07.310Z,76.85
2023-04-11T05:03:39.690Z,76.77
2023-04-11T05:05:20.848Z,76.67
2023-04-11T05:07:11.255Z,76.47
2023-04-11T05:08:44.102Z,76.39
2023-04-11T05:10:17.054Z,76.42
2023-04-11T05:11:45.196Z,76.35
2023-04-11T05:13:10.784Z,76.29
2023-04-11T05:14:54.695Z,76.06
2023-04-11T05:16:26.625Z,76.26
2023-04-11T05:17:52.759Z,75.99
2023-04-11T05:19:27.063Z,75.91
2023-04-11T05:20:47.876Z,75.92
2023-04-11T05:22:26.602Z,75.79
2023-04-11T05:24:02.610Z,75.74
2023-04-11T05:25:44.013Z,75.65
2023-04-11T05:27:18.964Z,75.41
2023-04-11T05:28:51.784Z,75.30
2023-04-11T05:30:20.991Z,74.92
2023-04-11T05:31:44.164Z,74.86
2023-04-11T05:33:18.295Z,74.70
2023-04-11T05:35:02.475Z,74.43
2023-04-11T05:36:50.064Z,74.46
2023-04-11T05:38:13.873Z,74.33
2023-04-11T05:40:00.165Z,73.88
2023-04-11T05:41:43.924Z,73.72
2023-04-11T05:43:26.962Z,73.50
2023-04-11T05:45:10.536Z,72.96
2023-04-11T05:46:43.188Z,72.93
2023-04-11T05:48:16.053Z,73.15
2023-04-11T05:49:48.504Z,72.83
2023-04-11T05:51:15.563Z,72.91
2023-04-11T05:52:46.633Z,72.57
2023-04-11T05:54:29.946Z,72.44
2023-04-11T05:56:05.313Z,72.05
2023-04-11T05:57:37.998Z,72.10
2023-04-11T05:59:05.470Z,72.29
2023-04-11T06:00:33.465Z,72.11
2023-04-11T06:02:07.910Z,72.01
2023-04-11T06:03:47.960Z,71.78
2023-04-11T06:05:21.733Z,70.98
2023-04-11T06:06:56.361Z,71.57
2023-04-11T06:08:39.722Z,71.04
2023-04-11T06:10:02.492Z,70.86
2023-04-11T06:11:30.214Z,71.00
2023-04-11T06:13:13.427Z,70.29
2023-04-11T06:14:48.284Z,70.56
2023-04-11T06:16:32.921Z,70.24
2023-04-11T06:18:16.557Z,70.30
2023-04-11T06:19:41.938Z,70.67
2023-04-11T06:21:21.770Z,70.55
2023-04-11T06:22:56.393Z,70.06
2023-04-11T06:24:30.965Z,69.95
2023-04-11T06:26:06.663Z,69.41
2023-04-11T06:27:30.504Z,70.01
2023-04-11T06:29:04.758Z,69.84
2023-04-11T06:30:32.225Z,69.39
2023-04-11T06:32:04.406Z,69.65
2023-04-11T06:33:36.432Z,68.87
2023-04-11T06:35:19.600Z,68.74
2023-04-11T06:36:59.163Z,68.32
2023-04-11T06:38:40.386Z,68.45
2023-04-11T06:40:19.822Z,67.86
2023-04-11T06:41:52.480Z,67.64
2023-04-11T06:43:41.576Z,67.50
2023-04-11T06:45:13.319Z,67.83
2023-04-11T06:46:48.257Z,67.96
2023-04-11T06:48:20.305Z,67.70
2023-04-11T06:50:05.380Z,67.57
2023-04-11T06:51:49.219Z,67.33
2023-04-11T06:53:23.420Z,67.27
2023-04-11T06:55:06.854Z,66.97
2023-04-11T06:56:39.008Z,66.19
2023-04-11T06:58:12.962Z,65.89
2023-04-11T06:59:56.923Z,65.91
2023-04-11T07:01:39.842Z,65.80
2023-04-11T07:03:07.912Z,65.63
2023-04-11T07:04:52.115Z,65.25
2023-04-11T07:06:15.292Z,64.87
2023-04-11T07:08:03.269Z,64.77
2023-04-11T07:09:47.185Z,65.21
2023-04-11T07:11:14.449Z,65.14
2023-04-11T07:12:37.344Z,65.26
2023-04-11T07:14:16.540Z,65.13
2023-04-11T07:15:48.593Z,64.69
2023-04-11T07:17:18.389Z,64.42
2023-04-11T07:19:02.301Z,64.36
2023-04-11T07:20:46.171Z,63.93
2023-04-11T07:22:17.800Z,63.78
2023-04-11T07:24:03.202Z,63.99
2023-04-11T07:25:36.241Z,64.20
2023-04-11T07:26:57.921Z,63.78
2023-04-11T07:28:31.673Z,63.78
2023-04-11T07:30:08.375Z,63.68
2023-04-11T07:31:52.447Z,63.21
2023-04-11T07:33:27.261Z,62.89
2023-04-11T07:35:10.868Z,62.27
2023-04-11T07:36:33.597Z,61.90
2023-04-11T07:38:05.577Z,62.08
2023-04-11T07:39:39.145Z,62.00
2023-04-11T07:41:22.388Z,61.98
2023-04-11T07:43:03.121Z,61.96
2023-04-11T07:44:54.803Z,61.38
2023-04-11T07:46:19.529Z,61.45
2023-04-11T07:48:03.129Z,61.59
2023-04-11T07:49:47.067Z,61.61
2023-04-11T07:51:21.069Z,61.64
2023-04-11T07:53:00.653Z,61.91
2023-04-11T07:54:44.597Z,61.69
2023-04-11T07:56:18.529Z,61.34
2023-04-11T07:58:12.212Z,61.08
2023-04-11T07:59:37.795Z,60.56
2023-04-11T08:01:16.420Z,60.43
2023-04-11T08:03:00.267Z,60.92
2023-04-11T08:04:46.914Z,60.98
2023-04-11T08:06:21.455Z,61.08
2023-04-11T08:07:42.016Z,60.63
2023-04-11T08:09:13.991Z,60.14
2023-04-11T08:11:02.212Z,59.88
2023-04-11T08:12:34.856Z,59.77
2023-04-11T08:14:18.893Z,59.94
2023-04-11T08:15:58.337Z,60.11
2023-04-11T08:17:42.216Z,60.21
2023-04-11T08:19:11.730Z,59.44
2023-04-11T08:21:04.222Z,58.88
2023-04-11T08:22:50.297Z,58.88
2023-04-11T08:24:33.642Z,59.13
2023-04-11T08:26:06.266Z,58.50
2023-04-11T08:27:50.252Z,57.65
2023-04-11T08:29:33.698Z,57.46
2023-04-11T08:31:18.112Z,56.94
2023-04-11T08:32:41.499Z,57.30
2023-04-11T08:34:06.681Z,57.17
2023-04-11T08:35:30.124Z,57.40
2023-04-11T08:37:13.427Z,56.97
2023-04-11T08:38:58.801Z,56.66
2023-04-11T08:40:37.985Z,57.24
2023-04-11T08:42:16.581Z,56.88
2023-04-11T08:43:40.270Z,56.39
2023-04-11T08:45:26.809Z,55.82
2023-04-11T08:47:09.937Z,55.44
2023-04-11T08:48:53.948Z,56.31
2023-04-11T08:50:39.843Z,56.41
2023-04-11T08:52:09.843Z,56.22
2023-04-11T08:53:42.376Z,56.89
2023-04-11T08:55:13.599Z,56.30
2023-04-11T08:56:57.340Z,55.98
2023-04-11T08:58:25.108Z,55.62
2023-04-11T08:59:59.510Z,55.25
2023-04-11T09:01:27.287Z,55.40
2023-04-11T09:03:11.690Z,55.38
2023-04-11T09:04:55.796Z,55.28
2023-04-11T09:06:30.014Z,55.25
2023-04-11T09:08:13.206Z,55.51
2023-04-11T09:09:49.122Z,54.75
2023-04-11T09:11:23.021Z,54.42
2023-04-11T09:12:55.110Z,53.91
2023-04-11T09:14:27.324Z,54.13
2023-04-11T09:15:52.579Z,53.76
2023-04-11T09:17:24.093Z,53.56
2023-04-11T09:18:56.357Z,53.73
2023-04-11T09:20:30.478Z,53.81
2023-04-11T09:22:15.760Z,53.53
2023-04-11T09:24:00.679Z,53.61
2023-04-11T09:25:34.685Z,53.53
2023-04-11T09:27:07.190Z,53.23
2023-04-11T09:28:54.099Z,53.79
2023-04-11T09:30:33.485Z,53.55
2023-04-11T09:32:07.658Z,53.56
2023-04-11T09:34:00.123Z,53.21
2023-04-11T09:35:43.905Z,53.08
2023-04-11T09:37:18.553Z,52.42
2023-04-11T09:38:46.462Z,52.82
2023-04-11T09:40:18.412Z,52.80
2023-04-11T09:42:02.325Z,52.95
2023-04-11T09:43:24.904Z,53.45
2023-04-11T09:44:59.107Z,53.16
2023-04-11T09:46:51.757Z,52.76
2023-04-11T09:48:29.330Z,52.20
2023-04-11T09:50:11.260Z,51.57
2023-04-11T09:51:55.105Z,51.33
2023-04-11T09:53:27.097Z,51.41
2023-04-11T09:55:10.927Z,51.51
2023-04-11T09:56:50.990Z,51.71
2023-04-11T09:58:31.273Z,51.58
2023-04-11T10:00:23.481Z,51.76
2023-04-11T10:01:58.027Z,51.91
2023-04-11T10:03:31.368Z,51.48
2023-04-11T10:05:15.098Z,51.54
2023-04-11T10:06:49.819Z,50.61
2023-04-11T10:08:21.664Z,50.55
2023-04-11T10:10:05.324Z,49.89
2023-04-11T10:11:39.590Z,50.95
2023-04-11T10:12:59.488Z,51.12
2023-04-11T10:14:19.428Z,51.22
2023-04-11T10:16:02.999Z,50.30
2023-04-11T10:17:45.319Z,49.80
2023-04-11T10:19:16.856Z,50.25
2023-04-11T10:20:39.868Z,49.57
2023-04-11T10:22:11.898Z,49.35
2023-04-11T10:23:44.303Z,49.23
2023-04-11T10:25:06.982Z,49.30
2023-04-11T10:26:26.745Z,48.92
2023-04-11T10:27:59.686Z,48.51
2023-04-11T10:29:33.789Z,48.46
2023-04-11T10:31:08.484Z,48.41
2023-04-11T10:32:57.715Z,49.10
2023-04-11T10:34:18.012Z,49.19
2023-04-11T10:36:02.335Z,48.69
2023-04-11T10:37:34.687Z,48.04
2023-04-11T10:39:18.084Z,48.02
2023-04-11T10:40:57.748Z,47.60
2023-04-11T10:42:49.930Z,47.91
2023-04-11T10:44:23.893Z,47.77
2023-04-11T10:45:59.266Z,47.86
2023-04-11T10:47:33.606Z,47.89
2023-04-11T10:49:07.510Z,47.86
2023-04-11T10:50:47.357Z,47.99
2023-04-11T10:52:20.773Z,48.46
2023-04-11T10:53:55.672Z,48.15
2023-04-11T10:55:35.218Z,48.04
2023-04-11T10:57:18.792Z,48.07
2023-04-11T10:59:01.922Z,47.93
2023-04-11T11:00:35.150Z,48.61
2023-04-11T11:02:10.377Z,47.41
2023-04-11T11:03:42.882Z,47.46
2023-04-11T11:05:26.036Z,46.62
2023-04-11T11:06:58.587Z,45.70
2023-04-11T11:08:30.495Z,45.74
2023-04-11T11:09:52.792Z,45.06
2023-04-11T11:11:34.722Z,44.44
2023-04-11T11:13:14.208Z,44.26
2023-04-11T11:14:44.456Z,43.78
2023-04-11T11:16:04.734Z,43.85
2023-04-11T11:17:48.612Z,43.66
2023-04-11T11:19:22.880Z,43.33
2023-04-11T11:20:55.475Z,43.65
2023-04-11T11:22:17.891Z,43.49
2023-04-11T11:23:52.748Z,43.29
2023-04-11T11:25:24.532Z,43.11
2023-04-11T11:26:59.205Z,42.92
2023-04-11T11:30:13.326Z,41.49
2023-04-11T11:31:38.473Z,40.94
2023-04-11T11:33:17.393Z,40.99
2023-04-11T11:35:02.263Z,41.08
2023-04-11T11:36:42.442Z,41.62
2023-04-11T11:38:30.269Z,41.39
2023-04-11T11:40:05.159Z,41.05
2023-04-11T11:41:39.783Z,40.79
2023-04-11T11:43:18.637Z,40.33
2023-04-11T11:45:12.256Z,40.88
2023-04-11T11:47:05.313Z,41.30
2023-04-11T11:48:34.941Z,40.97
2023-04-11T11:50:07.722Z,41.26
2023-04-11T11:51:30.077Z,40.86
2023-04-11T11:52:53.528Z,40.57
2023-04-11T11:54:18.060Z,41.04
2023-04-11T11:55:54.459Z,41.14
2023-04-11T11:57:22.580Z,40.64
2023-04-11T11:58:58.904Z,39.67
2023-04-11T12:00:42.667Z,39.72
2023-04-11T12:02:14.563Z,39.24
2023-04-11T12:03:50.577Z,39.34
2023-04-11T12:05:34.734Z,39.26
2023-04-11T12:06:58.065Z,38.83
2023-04-11T12:08:42.635Z,38.22
2023-04-11T12:10:14.443Z,38.73
2023-04-11T12:11:47.248Z,39.03
2023-04-11T12:13:17.005Z,38.79
2023-04-11T12:14:57.654Z,38.15
2023-04-11T12:16:20.008Z,37.73
2023-04-11T12:17:52.201Z,37.73
2023-04-11T12:19:12.550Z,38.33
2023-04-11T12:20:46.906Z,38.17
2023-04-11T12:22:35.236Z,38.07
2023-04-11T12:24:07.154Z,38.14
2023-04-11T12:25:46.530Z,37.88
2023-04-11T12:27:18.863Z,38.28
2023-04-11T12:29:06.951Z,38.40
2023-04-11T12:30:46.623Z,37.38
2023-04-11T12:32:38.561Z,36.52
2023-04-11T12:34:08.784Z,36.21
2023-04-11T12:36:01.355Z,34.96
2023-04-11T12:37:33.196Z,35.57
2023-04-11T12:39:03.162Z,35.80
2023-04-11T12:40:44.165Z,35.09
2023-04-11T12:42:18.608Z,35.04
2023-04-11T12:44:00.807Z,35.69
2023-04-11T12:45:45.073Z,35.30
2023-04-11T12:47:16.995Z,34.32
2023-04-11T12:48:59.284Z,33.98
2023-04-11T12:50:32.171Z,33.75
2023-04-11T12:52:15.726Z,33.87
2023-04-11T12:53:55.318Z,33.67
2023-04-11T12:55:30.397Z,34.12
2023-04-11T12:57:06.820Z,33.95
2023-04-11T12:58:39.845Z,33.77
2023-04-11T13:00:03.873Z,33.66
2023-04-11T13:01:36.155Z,32.74
2023-04-11T13:03:08.413Z,32.63
2023-04-11T13:04:52.805Z,32.00
2023-04-11T13:06:37.148Z,32.84
2023-04-11T13:07:59.526Z,32.53
2023-04-11T13:09:30.043Z,32.46
2023-04-11T13:11:05.661Z,31.94
2023-04-11T13:12:52.579Z,32.19
2023-04-11T13:14:35.909Z,32.39
2023-04-11T13:16:19.466Z,32.73
2023-04-11T13:17:51.613Z,32.53
2023-04-11T13:19:35.328Z,32.67
2023-04-11T13:21:07.523Z,33.24
2023-04-11T13:22:27.653Z,32.75
2023-04-11T13:23:59.623Z,33.11
2023-04-11T13:25:43.280Z,33.16
2023-04-11T13:27:15.457Z,33.02
2023-04-11T13:28:45.681Z,32.64
2023-04-11T13:30:09.070Z,32.61
2023-04-11T13:31:53.126Z,32.79
2023-04-11T13:33:25.232Z,33.96
2023-04-11T13:35:06.739Z,33.80
2023-04-11T13:36:41.970Z,33.84
2023-04-11T13:38:25.239Z,33.02
2023-04-11T13:39:56.105Z,33.39
2023-04-11T13:41:37.273Z,33.39
2023-04-11T13:43:21.663Z,32.37
2023-04-11T13:44:50.097Z,32.60
2023-04-11T13:46:17.962Z,31.59
2023-04-11T13:47:52.779Z,32.21
2023-04-11T13:49:36.518Z,32.38
2023-04-11T13:50:59.878Z,32.60
2023-04-11T13:52:33.009Z,33.03
2023-04-11T13:54:06.658Z,33.42
2023-04-11T13:55:53.635Z,33.76
2023-04-11T13:57:27.792Z,33.59
2023-04-11T13:58:48.711Z,33.58
2023-04-11T14:00:21.716Z,34.01
2023-04-11T14:01:42.840Z,34.57
2023-04-11T14:03:22.408Z,35.23
2023-04-11T14:04:54.320Z,35.96
2023-04-11T14:06:25.825Z,35.45
2023-04-11T14:07:58.450Z,35.35
2023-04-11T14:09:32.955Z,36.16
2023-04-11T14:11:05.336Z,36.13
2023-04-11T14:12:58.313Z,36.11
2023-04-11T14:14:42.160Z,36.20
2023-04-11T14:16:14.303Z,36.06
2023-04-11T14:17:49.055Z,35.64
2023-04-11T14:19:38.707Z,35.28
2023-04-11T14:21:22.723Z,34.47
2023-04-11T14:23:01.955Z,33.78
2023-04-11T14:24:34.150Z,33.57
2023-04-11T14:26:08.086Z,33.17
2023-04-11T14:27:28.692Z,33.35
2023-04-11T14:29:02.111Z,33.30
2023-04-11T14:30:45.757Z,33.60
2023-04-11T14:32:13.477Z,33.69
2023-04-11T14:33:34.001Z,34.48
2023-04-11T14:35:07.673Z,35.18
2023-04-11T14:36:35.395Z,35.87
2023-04-11T14:38:07.672Z,36.80
2023-04-11T14:39:27.710Z,37.20
2023-04-11T14:41:00.036Z,37.34
2023-04-11T14:42:32.092Z,37.34
2023-04-11T14:44:15.974Z,37.58
2023-04-11T14:46:07.290Z,37.75
2023-04-11T14:47:51.633Z,37.80
2023-04-11T14:49:23.180Z,38.38
2023-04-11T14:50:58.706Z,38.68
2023-04-11T14:52:32.860Z,38.64
2023-04-11T14:54:16.040Z,39.02
2023-04-11T14:55:36.704Z,38.96
2023-04-11T14:56:59.855Z,38.55
2023-04-11T14:58:33.495Z,38.68
2023-04-11T15:00:17.730Z,39.59
2023-04-11T15:01:57.472Z,39.94
2023-04-11T15:03:29.483Z,39.75
2023-04-11T15:04:58.034Z,40.14
2023-04-11T15:06:18.391Z,40.07
2023-04-11T15:07:44.320Z,40.31
2023-04-11T15:09:19.373Z,40.48
2023-04-11T15:10:45.008Z,40.57
2023-04-11T15:12:28.516Z,41.13
2023-04-11T15:14:02.679Z,40.87
2023-04-11T15:15:41.563Z,41.46
2023-04-11T15:17:03.917Z,42.14
2023-04-11T15:18:35.447Z,41.99
2023-04-11T15:20:19.236Z,42.18
2023-04-11T15:22:00.269Z,42.79
2023-04-11T15:23:32.420Z,42.49
2023-04-11T15:25:06.868Z,42.66
2023-04-11T15:26:40.823Z,42.88
2023-04-11T15:28:14.607Z,43.42
2023-04-11T15:29:58.654Z,43.30
2023-04-11T15:31:42.932Z,43.71
2023-04-11T15:33:27.288Z,43.77
2023-04-11T15:35:11.054Z,43.56
2023-04-11T15:36:35.781Z,44.50
2023-04-11T15:38:16.632Z,44.34
2023-04-11T15:39:49.157Z,44.50
2023-04-11T15:41:11.715Z,44.76
2023-04-11T15:42:55.658Z,44.81
2023-04-11T15:44:18.346Z,45.25
2023-04-11T15:46:03.212Z,45.23
2023-04-11T15:47:37.663Z,45.24
2023-04-11T15:49:00.482Z,44.93
2023-04-11T15:50:48.572Z,44.96
2023-04-11T15:52:16.614Z,45.22
2023-04-11T15:53:58.559Z,45.11
2023-04-11T15:55:52.305Z,45.72
2023-04-11T15:57:26.746Z,45.98
2023-04-11T15:59:11.208Z,45.96
2023-04-11T16:00:53.584Z,45.87
2023-04-11T16:02:45.796Z,46.30
2023-04-11T16:04:18.228Z,46.81
2023-04-11T16:05:58.176Z,46.54
2023-04-11T16:07:41.802Z,46.77
2023-04-11T16:09:34.264Z,47.28
2023-04-11T16:10:57.754Z,47.38
2023-04-11T16:12:18.065Z,47.59
2023-04-11T16:13:50.159Z,48.14
2023-04-11T16:15:21.808Z,48.10
2023-04-11T16:16:54.233Z,48.08
2023-04-11T16:18:40.089Z,48.23
2023-04-11T16:20:19.215Z,48.17
2023-04-11T16:21:54.483Z,48.17
2023-04-11T16:23:28.198Z,48.49
2023-04-11T16:25:00.699Z,48.26
2023-04-11T16:26:32.980Z,48.20
2023-04-11T16:28:16.584Z,48.92
2023-04-11T16:30:02.681Z,50.00
2023-04-11T16:31:46.390Z,51.04
2023-04-11T16:33:11.165Z,52.09
2023-04-11T16:34:39.385Z,53.33
2023-04-11T16:36:13.611Z,54.38
2023-04-11T16:37:41.053Z,55.42
2023-04-11T16:39:24.820Z,56.62
2023-04-11T16:41:09.952Z,57.43
2023-04-11T16:42:42.602Z,58.07
2023-04-11T16:44:17.151Z,59.05
2023-04-11T16:45:47.463Z,59.94
2023-04-11T16:47:12.879Z,61.29
2023-04-11T16:48:41.392Z,62.81
2023-04-11T16:50:25.323Z,64.61
2023-04-11T16:52:05.211Z,66.16
2023-04-11T16:53:49.661Z,68.23
2023-04-11T16:55:20.014Z,68.75
2023-04-11T16:57:02.334Z,69.62
2023-04-11T16:58:32.966Z,70.51
2023-04-11T17:00:22.583Z,71.47
2023-04-11T17:02:04.012Z,72.79
2023-04-11T17:03:39.476Z,73.63
2023-04-11T17:05:19.409Z,74.90
2023-04-11T17:06:54.061Z,75.21
2023-04-11T17:08:15.015Z,75.03
2023-04-11T17:09:48.496Z,76.14
2023-04-11T17:11:40.098Z,76.86
2023-04-11T17:13:23.911Z,78.04
2023-04-11T17:15:08.222Z,77.52
2023-04-11T17:17:01.407Z,77.97
2023-04-11T17:18:31.729Z,78.29
2023-04-11T17:19:57.195Z,77.89
2023-04-11T17:21:40.844Z,78.00
2023-04-11T17:23:29.012Z,77.99
2023-04-11T17:25:21.399Z,78.72
2023-04-11T17:29:07.261Z,79.40
2023-04-11T17:30:57.594Z,78.97
2023-04-11T17:32:35.283Z,79.20
2023-04-11T17:34:19.855Z,79.41
2023-04-11T17:36:14.439Z,79.71
2023-04-11T17:37:39.726Z,80.19
2023-04-11T17:39:18.962Z,79.83
2023-04-11T17:40:39.195Z,79.38
2023-04-11T17:42:14.332Z,78.90
2023-04-11T17:43:46.833Z,79.19
2023-04-11T17:45:33.300Z,79.16
2023-04-11T17:47:17.313Z,79.82
2023-04-11T17:48:41.335Z,79.89
2023-04-11T17:50:24.788Z,79.47
2023-04-11T17:52:09.785Z,79.55
2023-04-11T17:53:59.403Z,80.02
2023-04-11T17:57:38.369Z,80.11
2023-04-11T17:59:13.148Z,80.23
2023-04-11T18:01:01.257Z,80.21
2023-04-11T18:02:45.854Z,80.53
2023-04-11T18:04:21.120Z,80.78
2023-04-11T18:06:15.367Z,80.63
2023-04-11T18:07:49.236Z,80.84
2023-04-11T18:09:23.321Z,80.74
2023-04-11T18:11:08.714Z,80.99
2023-04-11T18:12:56.906Z,80.74
2023-04-11T18:14:40.759Z,80.95
2023-04-11T18:16:24.565Z,80.76
2023-04-11T18:18:18.361Z,80.54
2023-04-11T18:20:10.536Z,80.41
2023-04-11T18:21:50.462Z,80.42
2023-04-11T18:23:34.719Z,80.74
2023-04-11T18:25:18.332Z,80.69
2023-04-11T18:26:39.161Z,81.82
2023-04-11T18:28:11.229Z,83.49
2023-04-11T18:29:55.126Z,83.94
2023-04-11T18:31:49.403Z,83.98
2023-04-11T18:33:24.004Z,83.95
2023-04-11T18:35:04.059Z,84.16
2023-04-11T18:36:48.416Z,83.87
2023-04-11T18:38:23.355Z,83.64
2023-04-11T18:39:46.552Z,83.61
2023-04-11T18:41:08.062Z,83.06
2023-04-11T18:42:58.325Z,82.57
2023-04-11T18:44:21.313Z,82.56
2023-04-11T18:45:56.749Z,82.42
2023-04-11T18:47:28.559Z,82.56
2023-04-11T18:49:08.197Z,82.50
2023-04-11T18:50:58.987Z,82.42
2023-04-11T18:52:38.984Z,82.32
2023-04-11T18:54:22.566Z,82.15
2023-04-11T18:55:48.815Z,82.21
2023-04-11T18:57:29.547Z,82.00
2023-04-11T18:59:08.538Z,81.72
2023-04-11T19:01:14.125Z,81.72
2023-04-11T19:03:01.742Z,81.37
2023-04-11T19:04:51.899Z,81.34
2023-04-11T19:06:24.309Z,81.24
2023-04-11T19:07:56.744Z,80.97
2023-04-11T19:09:29.476Z,80.66
2023-04-11T19:10:52.801Z,80.87
2023-04-11T19:12:27.013Z,80.80
2023-04-11T19:14:01.513Z,80.68
2023-04-11T19:15:54.112Z,80.99
2023-04-11T19:17:34.085Z,81.16
2023-04-11T19:19:08.048Z,80.95
2023-04-11T19:21:01.374Z,80.78
2023-04-11T19:22:45.423Z,80.93
2023-04-11T19:24:17.456Z,80.82
2023-04-11T19:26:02.693Z,80.69
2023-04-11T19:27:46.425Z,80.48
2023-04-11T19:29:09.195Z,80.27
2023-04-11T19:30:45.999Z,80.53
2023-04-11T19:32:18.366Z,80.30
2023-04-11T19:34:02.961Z,80.33
2023-04-11T19:35:46.514Z,80.36
2023-04-11T19:37:38.570Z,79.77
2023-04-11T19:39:10.900Z,79.25
2023-04-11T19:40:54.963Z,79.37
2023-04-11T19:42:46.424Z,79.62
2023-04-11T19:44:38.446Z,80.00
2023-04-11T19:46:11.570Z,79.81
2023-04-11T19:48:05.659Z,80.43
2023-04-11T19:49:45.265Z,80.98
2023-04-11T19:51:17.790Z,80.46
2023-04-11T19:53:10.424Z,80.14
2023-04-11T19:54:49.900Z,80.12
2023-04-11T19:56:14.508Z,80.12
2023-04-11T19:58:06.660Z,79.66
2023-04-11T19:59:51.617Z,79.26
2023-04-11T20:01:25.616Z,79.14
2023-04-11T20:03:11.517Z,79.18
2023-04-11T20:06:47.585Z,80.36
2023-04-11T20:08:32.269Z,80.27
2023-04-11T20:10:12.239Z,80.07
2023-04-11T20:11:35.862Z,80.37
2023-04-11T20:12:58.806Z,80.33
2023-04-11T20:14:41.782Z,80.16
2023-04-11T20:16:04.086Z,80.43
2023-04-11T20:17:28.854Z,80.76
2023-04-11T20:18:49.655Z,81.46
2023-04-11T20:20:39.344Z,81.38
2023-04-11T20:22:24.362Z,80.84
2023-04-11T20:23:54.692Z,81.08
2023-04-11T20:25:28.984Z,81.23
2023-04-11T20:27:00.993Z,81.30
2023-04-11T20:28:23.200Z,81.24
2023-04-11T20:29:55.546Z,81.30
2023-04-11T20:31:29.961Z,81.34
2023-04-11T20:33:14.124Z,81.08
2023-04-11T20:34:46.847Z,81.33
2023-04-11T20:36:14.761Z,80.85
2023-04-11T20:37:49.674Z,81.09
2023-04-11T20:39:23.668Z,80.97
2023-04-11T20:41:17.315Z,81.09
2023-04-11T20:42:45.485Z,80.98
2023-04-11T20:44:18.348Z,80.77
2023-04-11T20:45:57.825Z,81.06
2023-04-11T20:47:29.414Z,81.33
2023-04-11T20:49:13.582Z,81.34
2023-04-11T20:51:06.334Z,80.85
2023-04-11T20:52:40.428Z,80.90
2023-04-11T20:54:03.024Z,80.90
2023-04-11T20:55:25.657Z,80.75
2023-04-11T20:56:56.475Z,81.04
2023-04-11T20:58:33.483Z,80.69